Time;durP1;ratioP1;P1;durP2;ratioP2;P2;SDS_P1;SDS_P2;PMS_P1;PMS_P2;Temp;Humidity;BMP_temperature;BMP_pressure;BME280_temperature;BME280_humidity;BME280_pressure;Samples;Min_cycle;Max_cycle;Signal;HPM_P1;HPM_P2
2023/12/19 00:01:21;;;;;;;202.27;63.40;;;;;;;;;;5030963;28;20079;-64
2023/12/19 00:03:47;;;;;;;193.73;59.33;;;;;;;;;;5030297;28;20435;-64
2023/12/19 00:06:13;;;;;;;204.20;60.10;;;;;;;;;;5030015;28;20037;-64
2023/12/19 00:08:39;;;;;;;172.87;60.10;;;;;;;;;;5030486;28;20085;-64
2023/12/19 00:11:07;;;;;;;174.53;57.97;;;;;;;;;;5030242;28;20544;-64
2023/12/19 00:13:33;;;;;;;158.80;58.20;;;;;;;;;;5030342;28;20768;-64
2023/12/19 00:15:59;;;;;;;163.60;55.90;;;;;;;;;;5030026;28;20065;-64
2023/12/19 00:18:26;;;;;;;196.97;60.70;;;;;;;;;;5029052;28;20061;-65
2023/12/19 00:20:53;;;;;;;167.57;54.03;;;;;;;;;;5027305;28;20099;-64
2023/12/19 00:23:19;;;;;;;133.67;53.43;;;;;;;;;;5029896;28;20427;-65
2023/12/19 00:25:45;;;;;;;175.27;55.77;;;;;;;;;;5029165;28;20053;-65
2023/12/19 00:28:11;;;;;;;211.50;58.43;;;;;;;;;;5029654;28;20056;-65
2023/12/19 00:30:37;;;;;;;167.60;55.00;;;;;;;;;;5029247;28;20150;-65
2023/12/19 00:33:05;;;;;;;156.33;50.40;;;;;;;;;;5030141;28;20471;-64
2023/12/19 00:35:32;;;;;;;152.97;52.37;;;;;;;;;;5029648;28;20041;-64
2023/12/19 00:37:58;;;;;;;164.00;54.27;;;;;;;;;;5027706;28;20061;-64
2023/12/19 00:40:24;;;;;;;135.03;49.80;;;;;;;;;;5027745;28;20107;-65
2023/12/19 00:42:50;;;;;;;159.20;51.10;;;;;;;;;;5029621;28;20496;-65
2023/12/19 00:45:16;;;;;;;140.80;49.57;;;;;;;;;;5029754;28;20060;-64
2023/12/19 00:47:42;;;;;;;138.27;48.77;;;;;;;;;;5029076;28;20557;-64
2023/12/19 00:50:09;;;;;;;178.77;53.27;;;;;;;;;;5029691;28;20095;-64
2023/12/19 00:52:35;;;;;;;138.93;48.57;;;;;;;;;;5029546;28;20546;-64
2023/12/19 00:55:01;;;;;;;163.53;52.47;;;;;;;;;;5029684;28;20053;-64
2023/12/19 00:57:28;;;;;;;183.73;52.23;;;;;;;;;;5028756;28;20048;-64
2023/12/19 00:59:54;;;;;;;166.50;51.50;;;;;;;;;;5028721;28;20091;-64
2023/12/19 01:02:20;;;;;;;148.60;50.37;;;;;;;;;;5029250;28;20124;-64
2023/12/19 01:04:46;;;;;;;157.07;53.27;;;;;;;;;;5029750;28;20171;-64
2023/12/19 01:07:12;;;;;;;172.80;54.43;;;;;;;;;;5028525;28;20496;-64
2023/12/19 01:09:38;;;;;;;174.93;56.43;;;;;;;;;;5029235;28;20053;-65
2023/12/19 01:12:04;;;;;;;148.40;49.63;;;;;;;;;;5029411;28;20049;-65
2023/12/19 01:14:30;;;;;;;145.30;51.80;;;;;;;;;;5029115;28;20048;-65
2023/12/19 01:16:56;;;;;;;173.73;52.17;;;;;;;;;;5027851;28;20045;-65
2023/12/19 01:19:22;;;;;;;145.10;48.20;;;;;;;;;;5029175;28;20087;-65
2023/12/19 01:21:48;;;;;;;140.03;48.60;;;;;;;;;;5029069;28;20045;-65
2023/12/19 01:24:14;;;;;;;158.67;49.83;;;;;;;;;;5028364;28;20060;-65
2023/12/19 01:26:40;;;;;;;130.20;47.50;;;;;;;;;;5029003;28;20496;-65
2023/12/19 01:29:06;;;;;;;139.07;49.03;;;;;;;;;;5028754;28;20100;-65
2023/12/19 01:31:32;;;;;;;165.10;51.40;;;;;;;;;;5027627;28;20037;-65
2023/12/19 01:33:58;;;;;;;170.73;51.90;;;;;;;;;;5028746;28;20037;-65
2023/12/19 01:36:25;;;;;;;154.17;51.30;;;;;;;;;;5028736;28;20038;-65
2023/12/19 01:38:52;;;;;;;130.80;44.93;;;;;;;;;;5027807;28;20128;-65
2023/12/19 01:41:18;;;;;;;134.37;45.50;;;;;;;;;;5028285;28;20089;-65
2023/12/19 01:43:44;;;;;;;133.57;47.77;;;;;;;;;;5028499;28;20061;-65
2023/12/19 01:46:17;;;;;;;161.13;50.87;;;;;;;;;;5028236;28;20045;-65
2023/12/19 01:48:44;;;;;;;131.55;47.30;;;;;;;;;;5028635;28;20050;-65
2023/12/19 01:51:11;;;;;;;151.10;49.93;;;;;;;;;;5027790;28;20065;-65
2023/12/19 01:53:38;;;;;;;137.90;50.50;;;;;;;;;;5028413;28;20082;-65
2023/12/19 01:56:04;;;;;;;141.50;49.30;;;;;;;;;;5028701;28;20057;-65
2023/12/19 01:58:31;;;;;;;149.30;49.97;;;;;;;;;;5028158;28;20045;-65
2023/12/19 02:00:58;;;;;;;136.00;49.23;;;;;;;;;;5028114;28;20053;-65
2023/12/19 02:03:24;;;;;;;125.73;46.57;;;;;;;;;;5028251;28;20096;-65
2023/12/19 02:05:51;;;;;;;139.67;48.43;;;;;;;;;;5027184;28;20044;-65
2023/12/19 02:08:17;;;;;;;120.37;44.83;;;;;;;;;;5028242;28;20053;-65
2023/12/19 02:10:44;;;;;;;121.20;45.67;;;;;;;;;;5028302;28;20045;-65
2023/12/19 02:13:10;;;;;;;132.73;47.07;;;;;;;;;;5027729;28;20042;-65
2023/12/19 02:15:36;;;;;;;150.97;48.40;;;;;;;;;;5027577;28;20045;-65
2023/12/19 02:18:18;;;;;;;124.90;47.23;;;;;;;;;;5028228;28;20049;-65
2023/12/19 02:20:44;;;;;;;144.23;48.70;;;;;;;;;;5028137;28;20056;-65
2023/12/19 02:23:16;;;;;;;139.90;45.77;;;;;;;;;;5028252;28;20057;-65
2023/12/19 02:25:42;;;;;;;116.60;41.83;;;;;;;;;;5028141;28;20041;-66
2023/12/19 02:28:08;;;;;;;153.17;49.43;;;;;;;;;;5024927;28;20064;-65
2023/12/19 02:30:35;;;;;;;130.13;43.60;;;;;;;;;;5027346;28;20072;-65
2023/12/19 02:33:01;;;;;;;134.30;45.33;;;;;;;;;;5027051;28;20397;-66
2023/12/19 02:35:28;;;;;;;114.57;41.57;;;;;;;;;;5028129;28;20050;-65
2023/12/19 02:37:54;;;;;;;114.77;41.47;;;;;;;;;;5027886;28;20049;-65
2023/12/19 02:40:20;;;;;;;120.17;40.43;;;;;;;;;;5027049;28;20042;-65
2023/12/19 02:42:46;;;;;;;103.10;40.03;;;;;;;;;;5025922;28;20144;-65
2023/12/19 02:45:12;;;;;;;113.53;41.67;;;;;;;;;;5027423;28;20136;-65
2023/12/19 02:47:38;;;;;;;122.57;41.30;;;;;;;;;;5026585;28;20128;-65
2023/12/19 02:50:04;;;;;;;124.37;41.63;;;;;;;;;;5028270;28;20465;-65
2023/12/19 02:52:30;;;;;;;112.17;40.27;;;;;;;;;;5031415;28;20041;-65
2023/12/19 02:54:57;;;;;;;144.47;44.17;;;;;;;;;;5031798;28;20053;-65
2023/12/19 02:57:23;;;;;;;117.67;39.90;;;;;;;;;;5031538;28;20160;-65
2023/12/19 02:59:49;;;;;;;102.07;39.50;;;;;;;;;;5030593;28;20146;-66
2023/12/19 03:02:15;;;;;;;104.97;40.37;;;;;;;;;;5011953;28;20049;-66
2023/12/19 03:04:41;;;;;;;140.50;42.13;;;;;;;;;;5011506;28;20049;-65
2023/12/19 03:07:08;;;;;;;99.37;38.40;;;;;;;;;;5011630;28;20050;-65
2023/12/19 03:09:34;;;;;;;116.03;40.00;;;;;;;;;;5011781;28;20053;-65
2023/12/19 03:12:03;;;;;;;94.33;36.67;;;;;;;;;;5011895;28;20046;-65
2023/12/19 03:14:29;;;;;;;88.03;34.80;;;;;;;;;;5011889;28;20522;-65
2023/12/19 03:16:55;;;;;;;118.70;39.27;;;;;;;;;;5031481;28;20047;-65
2023/12/19 03:19:21;;;;;;;108.30;36.40;;;;;;;;;;5031840;28;20045;-65
2023/12/19 03:21:47;;;;;;;90.17;35.03;;;;;;;;;;5031027;28;20136;-65
2023/12/19 03:24:13;;;;;;;114.70;38.40;;;;;;;;;;5030930;28;20041;-65
2023/12/19 03:26:39;;;;;;;78.73;33.57;;;;;;;;;;5030978;28;20045;-65
2023/12/19 03:29:05;;;;;;;103.57;36.57;;;;;;;;;;5031075;28;20525;-65
2023/12/19 03:31:31;;;;;;;94.33;34.83;;;;;;;;;;5031000;28;20419;-65
2023/12/19 03:33:57;;;;;;;90.70;34.37;;;;;;;;;;5031078;28;20495;-65
2023/12/19 03:36:23;;;;;;;88.30;34.10;;;;;;;;;;5029854;28;20478;-65
2023/12/19 03:38:50;;;;;;;86.10;33.37;;;;;;;;;;5030274;28;20492;-65
2023/12/19 03:41:16;;;;;;;86.80;33.17;;;;;;;;;;5030992;28;20095;-64
2023/12/19 03:43:42;;;;;;;78.47;32.97;;;;;;;;;;5030732;28;20107;-65
2023/12/19 03:46:08;;;;;;;93.43;35.17;;;;;;;;;;5030693;28;20072;-65
2023/12/19 03:48:34;;;;;;;79.67;32.93;;;;;;;;;;5029293;28;20523;-65
2023/12/19 03:51:00;;;;;;;102.77;34.10;;;;;;;;;;5030596;28;20127;-65
2023/12/19 03:53:27;;;;;;;78.27;32.83;;;;;;;;;;5030655;28;20049;-65
2023/12/19 03:55:53;;;;;;;102.03;36.13;;;;;;;;;;5029652;28;20061;-65
2023/12/19 03:58:19;;;;;;;93.80;36.07;;;;;;;;;;5030878;28;20064;-65
2023/12/19 04:00:45;;;;;;;81.40;32.07;;;;;;;;;;5030720;28;20397;-65
2023/12/19 04:03:11;;;;;;;89.03;34.17;;;;;;;;;;5029728;28;20462;-65
2023/12/19 04:05:37;;;;;;;98.20;34.60;;;;;;;;;;5030166;28;20415;-64
2023/12/19 04:08:04;;;;;;;77.73;34.93;;;;;;;;;;5030272;28;20049;-65
2023/12/19 04:10:30;;;;;;;104.17;36.50;;;;;;;;;;5029289;28;20044;-65
2023/12/19 04:12:56;;;;;;;84.87;35.30;;;;;;;;;;5029028;28;20056;-65
2023/12/19 04:15:22;;;;;;;105.33;37.97;;;;;;;;;;5030178;28;20479;-65
2023/12/19 04:17:48;;;;;;;127.80;40.60;;;;;;;;;;5028699;28;20120;-65
2023/12/19 04:20:14;;;;;;;97.10;37.87;;;;;;;;;;5030313;28;20046;-65
2023/12/19 04:22:40;;;;;;;104.40;39.57;;;;;;;;;;5030318;28;20037;-65
2023/12/19 04:25:07;;;;;;;92.73;38.33;;;;;;;;;;5030170;28;20049;-65
2023/12/19 04:27:33;;;;;;;107.27;40.03;;;;;;;;;;5029936;28;20120;-65
2023/12/19 04:29:59;;;;;;;130.70;43.30;;;;;;;;;;5029409;28;20041;-65
2023/12/19 04:32:25;;;;;;;94.73;38.30;;;;;;;;;;5030159;28;20056;-65
2023/12/19 04:34:51;;;;;;;101.47;37.80;;;;;;;;;;5030092;28;20038;-65
2023/12/19 04:37:17;;;;;;;122.57;39.47;;;;;;;;;;5028393;28;20451;-65
2023/12/19 04:39:43;;;;;;;118.87;41.67;;;;;;;;;;5029643;28;20107;-65
2023/12/19 04:42:09;;;;;;;114.67;42.27;;;;;;;;;;5029920;28;20073;-65
2023/12/19 04:44:35;;;;;;;137.73;42.90;;;;;;;;;;5029174;28;20080;-66
2023/12/19 04:47:02;;;;;;;129.53;43.83;;;;;;;;;;5029532;28;20045;-66
2023/12/19 04:49:28;;;;;;;111.07;40.30;;;;;;;;;;5029772;28;20142;-66
2023/12/19 04:51:54;;;;;;;117.87;41.57;;;;;;;;;;5029559;28;20053;-65
2023/12/19 04:54:20;;;;;;;124.93;42.20;;;;;;;;;;5029609;28;20053;-65
2023/12/19 04:56:46;;;;;;;120.57;40.97;;;;;;;;;;5029526;28;20558;-65
2023/12/19 04:59:12;;;;;;;150.50;45.40;;;;;;;;;;5027057;28;20052;-65
2023/12/19 05:01:40;;;;;;;101.47;39.03;;;;;;;;;;5029674;28;20049;-65
2023/12/19 05:04:06;;;;;;;125.60;40.97;;;;;;;;;;5029337;28;20053;-65
2023/12/19 05:06:33;;;;;;;114.50;39.07;;;;;;;;;;5028577;28;20518;-65
2023/12/19 05:08:59;;;;;;;119.57;39.90;;;;;;;;;;5029583;28;20095;-65
2023/12/19 05:11:26;;;;;;;113.60;37.10;;;;;;;;;;5029500;28;20049;-65
2023/12/19 05:13:52;;;;;;;110.50;37.53;;;;;;;;;;5027827;28;20133;-65
2023/12/19 05:16:19;;;;;;;108.07;36.73;;;;;;;;;;5029289;28;20052;-66
2023/12/19 05:18:46;;;;;;;120.60;37.50;;;;;;;;;;5029045;28;20053;-66
2023/12/19 05:21:12;;;;;;;92.20;34.53;;;;;;;;;;5027993;28;20494;-66
2023/12/19 05:23:39;;;;;;;103.53;35.30;;;;;;;;;;5029250;28;20049;-65
2023/12/19 05:26:06;;;;;;;80.60;30.37;;;;;;;;;;5029134;28;20096;-65
2023/12/19 05:28:32;;;;;;;94.57;32.73;;;;;;;;;;5029001;28;20081;-65
2023/12/19 05:30:58;;;;;;;76.67;31.03;;;;;;;;;;5028931;28;20053;-65
2023/12/19 05:33:25;;;;;;;75.77;29.67;;;;;;;;;;5029237;28;20079;-65
2023/12/19 05:35:51;;;;;;;75.10;30.80;;;;;;;;;;5028464;28;20084;-65
2023/12/19 05:38:18;;;;;;;78.43;28.40;;;;;;;;;;5028602;28;20046;-65
2023/12/19 05:40:44;;;;;;;79.93;29.57;;;;;;;;;;5027901;28;20103;-65
2023/12/19 05:43:10;;;;;;;80.73;29.93;;;;;;;;;;5027811;28;20100;-65
2023/12/19 05:45:36;;;;;;;89.57;31.20;;;;;;;;;;5028719;28;20057;-66
2023/12/19 05:48:02;;;;;;;90.00;30.43;;;;;;;;;;5027348;28;20045;-65
2023/12/19 05:50:28;;;;;;;78.03;29.23;;;;;;;;;;5027110;28;20041;-65
2023/12/19 05:52:54;;;;;;;66.13;27.33;;;;;;;;;;5028672;28;20049;-66
2023/12/19 05:55:21;;;;;;;72.43;27.00;;;;;;;;;;5028928;28;20056;-65
2023/12/19 05:57:47;;;;;;;87.87;30.77;;;;;;;;;;5028085;28;20045;-66
2023/12/19 06:00:15;;;;;;;59.10;26.20;;;;;;;;;;5027473;28;20499;-66
2023/12/19 06:02:41;;;;;;;58.27;25.17;;;;;;;;;;5028516;28;20056;-66
2023/12/19 06:05:08;;;;;;;67.23;25.70;;;;;;;;;;5026377;28;20115;-66
2023/12/19 06:07:37;;;;;;;79.23;26.57;;;;;;;;;;5027636;28;20091;-66
2023/12/19 06:10:03;;;;;;;73.93;26.70;;;;;;;;;;5027794;28;20053;-66
2023/12/19 06:12:31;;;;;;;50.03;22.47;;;;;;;;;;5028336;28;20053;-65
2023/12/19 06:14:57;;;;;;;52.50;22.20;;;;;;;;;;5027094;28;20072;-65
2023/12/19 06:17:23;;;;;;;57.10;21.60;;;;;;;;;;5028182;28;20048;-66
2023/12/19 06:19:49;;;;;;;37.37;18.93;;;;;;;;;;5026736;28;20492;-65
2023/12/19 06:22:15;;;;;;;50.63;22.17;;;;;;;;;;5027877;28;20053;-65
2023/12/19 06:24:41;;;;;;;58.57;22.63;;;;;;;;;;5028125;28;20049;-66
2023/12/19 06:27:08;;;;;;;59.70;22.70;;;;;;;;;;5027294;28;20050;-66
2023/12/19 06:29:34;;;;;;;51.53;20.70;;;;;;;;;;5030039;28;20037;-66
2023/12/19 06:32:00;;;;;;;56.03;22.37;;;;;;;;;;5031431;28;20120;-66
2023/12/19 06:34:29;;;;;;;42.90;19.40;;;;;;;;;;5031131;28;20046;-65
2023/12/19 06:36:55;;;;;;;54.37;21.53;;;;;;;;;;5030162;28;20116;-66
2023/12/19 06:39:21;;;;;;;43.23;19.60;;;;;;;;;;5032512;28;20049;-65
2023/12/19 06:41:47;;;;;;;90.73;25.77;;;;;;;;;;5031285;28;20476;-65
2023/12/19 06:44:13;;;;;;;49.00;21.63;;;;;;;;;;5031318;28;20057;-65
2023/12/19 06:46:39;;;;;;;48.80;20.87;;;;;;;;;;5031493;28;20064;-65
2023/12/19 06:49:05;;;;;;;54.87;20.87;;;;;;;;;;5032370;28;20064;-65
2023/12/19 06:51:32;;;;;;;52.40;21.03;;;;;;;;;;5031188;28;20049;-65
2023/12/19 06:53:58;;;;;;;52.60;20.33;;;;;;;;;;5020723;28;20038;-65
2023/12/19 06:56:28;;;;;;;45.50;21.00;;;;;;;;;;5053666;28;20060;-65
2023/12/19 06:58:55;;;;;;;43.77;19.27;;;;;;;;;;5029690;28;20057;-66
2023/12/19 07:01:21;;;;;;;46.17;20.20;;;;;;;;;;5030526;28;20439;-65
2023/12/19 07:03:47;;;;;;;61.13;22.20;;;;;;;;;;5031374;28;20061;-66
2023/12/19 07:06:16;;;;;;;44.00;19.30;;;;;;;;;;5031686;28;20151;-65
2023/12/19 07:08:42;;;;;;;37.53;17.40;;;;;;;;;;5031150;28;20499;-65
2023/12/19 07:11:11;;;;;;;44.37;18.57;;;;;;;;;;5031538;28;20098;-65
2023/12/19 07:13:37;;;;;;;45.27;18.70;;;;;;;;;;5031704;28;20500;-66
2023/12/19 07:16:03;;;;;;;47.80;18.93;;;;;;;;;;5031339;28;20057;-66
2023/12/19 07:18:30;;;;;;;38.27;17.13;;;;;;;;;;5030659;28;20049;-66
2023/12/19 07:20:56;;;;;;;37.10;16.50;;;;;;;;;;5031288;28;20503;-66
2023/12/19 07:23:22;;;;;;;39.60;17.27;;;;;;;;;;5031322;28;20045;-66
2023/12/19 07:25:48;;;;;;;43.33;17.40;;;;;;;;;;5030987;28;20049;-66
2023/12/19 07:28:16;;;;;;;50.03;19.80;;;;;;;;;;5031088;28;20045;-66
2023/12/19 07:30:42;;;;;;;39.50;17.93;;;;;;;;;;5030473;28;20053;-65
2023/12/19 07:33:08;;;;;;;45.57;19.10;;;;;;;;;;5031148;28;20416;-66
2023/12/19 07:35:34;;;;;;;52.27;18.97;;;;;;;;;;5030765;28;20042;-66
2023/12/19 07:38:00;;;;;;;47.07;18.53;;;;;;;;;;5030463;28;20096;-66
2023/12/19 07:40:27;;;;;;;44.03;18.03;;;;;;;;;;5030794;28;20052;-66
2023/12/19 07:42:53;;;;;;;47.77;18.53;;;;;;;;;;5030522;28;20531;-65
2023/12/19 07:45:19;;;;;;;41.70;18.17;;;;;;;;;;5030285;28;20053;-66
2023/12/19 07:47:45;;;;;;;41.43;18.10;;;;;;;;;;5030348;28;20060;-66
2023/12/19 07:50:11;;;;;;;54.03;19.20;;;;;;;;;;5030843;28;20053;-66
2023/12/19 07:52:37;;;;;;;42.97;18.07;;;;;;;;;;5030599;28;20142;-66
2023/12/19 07:55:09;;;;;;;36.40;16.80;;;;;;;;;;5029735;28;20053;-66
2023/12/19 07:57:37;;;;;;;46.20;19.00;;;;;;;;;;5030356;28;20171;-66
2023/12/19 08:00:03;;;;;;;39.70;17.57;;;;;;;;;;5030385;28;20065;-66
2023/12/19 08:02:32;;;;;;;41.80;18.20;;;;;;;;;;5030814;28;20049;-66
2023/12/19 08:04:58;;;;;;;64.77;20.57;;;;;;;;;;5030368;28;20132;-66
2023/12/19 08:07:25;;;;;;;58.93;21.23;;;;;;;;;;5029970;28;20056;-66
2023/12/19 08:09:51;;;;;;;47.93;18.73;;;;;;;;;;5030780;28;20458;-66
2023/12/19 08:12:17;;;;;;;41.00;18.30;;;;;;;;;;5029008;28;20518;-66
2023/12/19 08:14:43;;;;;;;45.93;18.10;;;;;;;;;;5029198;28;20630;-66
2023/12/19 08:17:09;;;;;;;42.10;16.80;;;;;;;;;;5030631;28;20583;-66
2023/12/19 08:19:37;;;;;;;47.63;18.30;;;;;;;;;;5029890;28;20049;-66
2023/12/19 08:22:03;;;;;;;36.87;15.90;;;;;;;;;;5030453;28;20126;-66
2023/12/19 08:24:30;;;;;;;50.67;18.57;;;;;;;;;;5030335;28;20052;-66
2023/12/19 08:26:56;;;;;;;52.67;19.27;;;;;;;;;;5030059;28;20465;-66
2023/12/19 08:29:22;;;;;;;41.90;16.43;;;;;;;;;;5028200;28;20056;-66
2023/12/19 08:31:48;;;;;;;73.23;22.03;;;;;;;;;;5029828;28;20053;-66
2023/12/19 08:34:18;;;;;;;36.33;16.77;;;;;;;;;;5029804;28;20057;-66
2023/12/19 08:36:44;;;;;;;55.73;19.83;;;;;;;;;;5029479;28;20049;-66
2023/12/19 08:39:10;;;;;;;54.23;19.77;;;;;;;;;;5029225;28;20057;-66
2023/12/19 08:41:40;;;;;;;45.57;18.73;;;;;;;;;;5028964;28;20049;-66
2023/12/19 08:44:06;;;;;;;56.87;19.93;;;;;;;;;;5029530;28;20053;-66
2023/12/19 08:46:33;;;;;;;50.77;19.77;;;;;;;;;;5029215;28;20049;-66
2023/12/19 08:48:58;;;;;;;58.87;21.17;;;;;;;;;;5028800;28;20095;-66
2023/12/19 08:51:25;;;;;;;53.37;20.20;;;;;;;;;;5029400;28;20042;-66
2023/12/19 08:53:52;;;;;;;50.50;19.77;;;;;;;;;;5028886;28;20060;-66
2023/12/19 08:56:18;;;;;;;50.80;19.93;;;;;;;;;;5029292;28;20508;-67
2023/12/19 08:58:44;;;;;;;42.70;18.67;;;;;;;;;;5029033;28;20166;-66
2023/12/19 09:01:10;;;;;;;58.63;21.87;;;;;;;;;;5029145;28;20064;-66
2023/12/19 09:03:37;;;;;;;45.03;18.63;;;;;;;;;;5029223;28;20084;-66
2023/12/19 09:06:04;;;;;;;35.93;17.70;;;;;;;;;;5028593;28;20419;-66
2023/12/19 09:08:30;;;;;;;29.03;15.83;;;;;;;;;;5028711;28;20048;-66
2023/12/19 09:10:56;;;;;;;42.00;19.27;;;;;;;;;;5029130;28;20052;-66
2023/12/19 09:13:22;;;;;;;32.50;17.40;;;;;;;;;;5029115;28;20091;-66
2023/12/19 09:15:48;;;;;;;38.70;18.73;;;;;;;;;;5028774;28;20103;-66
2023/12/19 09:18:15;;;;;;;33.50;17.77;;;;;;;;;;5028885;28;20056;-66
2023/12/19 09:20:40;;;;;;;37.37;18.97;;;;;;;;;;5028269;28;20095;-66
2023/12/19 09:23:07;;;;;;;38.43;19.60;;;;;;;;;;5028664;28;20046;-66
2023/12/19 09:25:33;;;;;;;50.20;22.13;;;;;;;;;;5027451;28;20186;-66
2023/12/19 09:27:59;;;;;;;39.47;20.20;;;;;;;;;;5028821;28;20132;-66
2023/12/19 09:30:25;;;;;;;47.10;21.90;;;;;;;;;;5028159;28;20519;-65
2023/12/19 09:32:51;;;;;;;43.97;22.37;;;;;;;;;;5027993;28;20050;-67
2023/12/19 09:35:17;;;;;;;52.90;24.07;;;;;;;;;;5028674;28;20095;-66
2023/12/19 09:37:44;;;;;;;45.33;23.47;;;;;;;;;;5028042;28;20049;-66
2023/12/19 09:40:15;;;;;;;44.70;24.03;;;;;;;;;;5028278;28;20068;-66
2023/12/19 09:42:41;;;;;;;56.97;27.40;;;;;;;;;;5028056;28;20142;-66
2023/12/19 09:45:07;;;;;;;45.33;24.17;;;;;;;;;;5028536;28;20065;-66
2023/12/19 09:47:35;;;;;;;56.47;27.27;;;;;;;;;;5027752;28;20088;-66
2023/12/19 09:50:03;;;;;;;50.10;25.03;;;;;;;;;;5028091;28;20085;-66
2023/12/19 09:52:29;;;;;;;57.17;26.37;;;;;;;;;;5028111;28;20124;-67
2023/12/19 09:54:55;;;;;;;56.87;26.40;;;;;;;;;;5028161;28;20529;-66
2023/12/19 09:57:21;;;;;;;46.57;24.53;;;;;;;;;;5026347;28;20328;-66
2023/12/19 09:59:50;;;;;;;54.10;26.17;;;;;;;;;;5027311;28;20128;-66
2023/12/19 10:02:17;;;;;;;59.93;27.20;;;;;;;;;;5028064;28;20060;-66
2023/12/19 10:04:43;;;;;;;54.50;26.27;;;;;;;;;;5028139;28;20163;-66
2023/12/19 10:07:10;;;;;;;50.00;24.90;;;;;;;;;;5027991;28;20049;-66
2023/12/19 10:09:51;;;;;;;78.73;30.70;;;;;;;;;;5027560;28;20160;-66
2023/12/19 10:12:17;;;;;;;63.93;28.57;;;;;;;;;;5028338;28;20145;-66
2023/12/19 10:14:46;;;;;;;66.57;28.70;;;;;;;;;;5027981;28;20974;-66
2023/12/19 10:17:15;;;;;;;60.70;27.23;;;;;;;;;;5026602;28;20045;-66
2023/12/19 10:19:41;;;;;;;77.10;30.40;;;;;;;;;;5028045;28;20041;-67
2023/12/19 10:22:07;;;;;;;60.73;28.20;;;;;;;;;;5027997;28;20052;-66
2023/12/19 10:24:33;;;;;;;58.00;28.07;;;;;;;;;;5027448;28;20057;-66
2023/12/19 10:27:05;;;;;;;52.33;27.37;;;;;;;;;;5028028;28;20056;-66
2023/12/19 10:29:36;;;;;;;66.10;28.87;;;;;;;;;;5027316;28;20136;-66
2023/12/19 10:32:16;;;;;;;77.73;31.20;;;;;;;;;;5027869;28;20053;-66
2023/12/19 10:34:43;;;;;;;54.10;28.17;;;;;;;;;;5027877;28;20049;-66
2023/12/19 10:37:10;;;;;;;59.67;26.87;;;;;;;;;;5027087;28;20046;-66
2023/12/19 10:39:36;;;;;;;60.10;28.03;;;;;;;;;;5027828;28;20052;-66
2023/12/19 10:42:05;;;;;;;53.23;26.77;;;;;;;;;;5027679;28;20037;-66
2023/12/19 10:44:35;;;;;;;84.03;31.87;;;;;;;;;;5025979;28;20399;-66
2023/12/19 10:47:05;;;;;;;70.47;29.67;;;;;;;;;;5027608;28;20087;-66
2023/12/19 10:49:31;;;;;;;76.90;29.17;;;;;;;;;;5027135;28;20523;-66
2023/12/19 10:51:57;;;;;;;65.47;29.60;;;;;;;;;;5027815;28;20045;-66
2023/12/19 10:54:25;;;;;;;75.00;31.83;;;;;;;;;;5026754;28;20054;-66
2023/12/19 10:56:54;;;;;;;64.17;29.13;;;;;;;;;;5027294;28;20053;-66
2023/12/19 10:59:43;;;;;;;48.10;26.30;;;;;;;;;;5026985;28;20057;-66
2023/12/19 11:02:27;;;;;;;66.77;29.03;;;;;;;;;;5026775;28;20045;-66
2023/12/19 11:04:59;;;;;;;63.27;29.47;;;;;;;;;;5014594;28;20132;-66
2023/12/19 11:07:26;;;;;;;59.93;27.30;;;;;;;;;;5026933;28;20434;-66
2023/12/19 11:10:00;;;;;;;53.37;27.00;;;;;;;;;;5027749;28;20049;-66
2023/12/19 11:12:26;;;;;;;49.13;27.47;;;;;;;;;;5029802;28;20057;-66
2023/12/19 11:14:52;;;;;;;50.13;26.97;;;;;;;;;;5031501;28;20598;-66
2023/12/19 11:17:38;;;;;;;67.07;28.77;;;;;;;;;;5031545;28;20187;-66
2023/12/19 11:20:15;;;;;;;45.50;25.73;;;;;;;;;;5009086;28;20531;-66
2023/12/19 11:22:54;;;;;;;46.80;26.07;;;;;;;;;;5030086;28;20052;-66
2023/12/19 11:25:28;;;;;;;52.57;27.33;;;;;;;;;;5027783;28;20052;-66
2023/12/19 11:28:01;;;;;;;67.40;27.23;;;;;;;;;;5031371;28;20157;-66
2023/12/19 11:30:30;;;;;;;49.45;25.38;;;;;;;;;;5027164;28;20049;-66
2023/12/19 11:32:56;;;;;;;57.80;27.83;;;;;;;;;;5051246;28;20067;-66
2023/12/19 11:35:27;;;;;;;66.57;28.33;;;;;;;;;;5051176;28;20483;-65
2023/12/19 11:38:13;;;;;;;60.13;27.57;;;;;;;;;;5037037;28;20045;-66
2023/12/19 11:40:45;;;;;;;51.27;25.67;;;;;;;;;;5028971;28;20060;-66
2023/12/19 11:43:11;;;;;;;40.13;24.50;;;;;;;;;;5026062;28;20058;-66
2023/12/19 11:45:37;;;;;;;46.50;24.97;;;;;;;;;;5029638;28;20566;-66
2023/12/19 11:48:23;;;;;;;60.80;26.17;;;;;;;;;;5029002;28;20415;-65
2023/12/19 11:50:49;;;;;;;48.47;25.33;;;;;;;;;;5030519;28;20053;-65
2023/12/19 11:53:22;;;;;;;46.33;24.33;;;;;;;;;;5029111;28;20054;-66
2023/12/19 11:55:48;;;;;;;68.07;28.10;;;;;;;;;;5030567;28;20428;-66
2023/12/19 11:58:14;;;;;;;47.80;25.07;;;;;;;;;;5030410;28;20045;-66
2023/12/19 12:00:40;;;;;;;45.17;24.27;;;;;;;;;;5026631;28;20049;-66
2023/12/19 12:03:10;;;;;;;46.67;24.27;;;;;;;;;;5030021;28;20041;-66
2023/12/19 12:05:39;;;;;;;51.53;25.93;;;;;;;;;;5030672;28;20042;-66
2023/12/19 12:08:06;;;;;;;51.13;25.67;;;;;;;;;;5029048;28;20538;-66
2023/12/19 12:10:32;;;;;;;48.03;23.00;;;;;;;;;;5030536;28;20048;-66
2023/12/19 12:13:02;;;;;;;39.73;23.57;;;;;;;;;;5030123;28;20042;-66
2023/12/19 12:15:28;;;;;;;41.00;22.67;;;;;;;;;;5029824;28;20115;-66
2023/12/19 12:18:04;;;;;;;45.43;22.93;;;;;;;;;;5030296;28;20045;-66
2023/12/19 12:20:34;;;;;;;40.83;22.00;;;;;;;;;;5030079;28;20049;-66
2023/12/19 12:23:01;;;;;;;44.57;22.43;;;;;;;;;;5029100;28;20050;-66
2023/12/19 12:25:27;;;;;;;46.33;23.87;;;;;;;;;;5028681;28;20164;-66
2023/12/19 12:27:55;;;;;;;39.43;20.73;;;;;;;;;;5029963;28;20124;-66
2023/12/19 12:30:27;;;;;;;40.60;22.93;;;;;;;;;;5029733;28;20045;-66
2023/12/19 12:32:53;;;;;;;48.50;24.03;;;;;;;;;;5029918;28;20057;-67
2023/12/19 12:35:31;;;;;;;40.57;22.27;;;;;;;;;;5029189;28;20522;-66
2023/12/19 12:38:02;;;;;;;57.63;25.17;;;;;;;;;;5029659;28;20049;-66
2023/12/19 12:40:29;;;;;;;43.70;22.90;;;;;;;;;;5029218;28;20062;-66
2023/12/19 12:43:13;;;;;;;50.60;22.97;;;;;;;;;;5027779;28;20053;-66
2023/12/19 12:45:39;;;;;;;42.07;22.43;;;;;;;;;;5029313;28;20152;-67
2023/12/19 12:48:13;;;;;;;58.67;25.53;;;;;;;;;;5029413;28;20594;-66
2023/12/19 12:50:41;;;;;;;50.13;24.37;;;;;;;;;;5029536;28;20049;-66
2023/12/19 12:53:13;;;;;;;36.07;20.97;;;;;;;;;;5029178;28;20049;-66
2023/12/19 12:55:38;;;;;;;57.37;24.60;;;;;;;;;;5029521;28;20473;-66
2023/12/19 12:58:04;;;;;;;63.83;25.70;;;;;;;;;;5029247;28;20132;-67
2023/12/19 13:00:32;;;;;;;51.07;24.47;;;;;;;;;;5028623;28;20095;-66
2023/12/19 13:02:58;;;;;;;68.60;28.27;;;;;;;;;;5027849;28;20056;-66
2023/12/19 13:05:24;;;;;;;49.33;25.00;;;;;;;;;;5028435;28;20046;-66
2023/12/19 13:07:50;;;;;;;45.83;23.43;;;;;;;;;;5027674;28;20085;-67
2023/12/19 13:10:16;;;;;;;67.63;27.53;;;;;;;;;;5028660;28;20524;-67
2023/12/19 13:12:43;;;;;;;71.10;26.93;;;;;;;;;;5029296;28;20136;-67
2023/12/19 13:15:09;;;;;;;49.53;24.00;;;;;;;;;;5029195;28;20063;-66
2023/12/19 13:17:35;;;;;;;78.57;29.93;;;;;;;;;;5027733;28;20148;-67
2023/12/19 13:20:03;;;;;;;62.07;26.53;;;;;;;;;;5029258;28;20073;-67
2023/12/19 13:22:29;;;;;;;64.47;25.83;;;;;;;;;;5028329;28;20053;-67
2023/12/19 13:24:55;;;;;;;54.37;23.60;;;;;;;;;;5028984;28;20142;-66
2023/12/19 13:27:21;;;;;;;49.70;22.97;;;;;;;;;;5028223;28;20049;-66
2023/12/19 13:29:47;;;;;;;44.87;21.07;;;;;;;;;;5028911;28;20253;-67
2023/12/19 13:32:13;;;;;;;53.57;23.73;;;;;;;;;;5028609;28;20044;-66
2023/12/19 13:34:40;;;;;;;47.47;22.30;;;;;;;;;;5028216;28;20053;-66
2023/12/19 13:37:07;;;;;;;71.70;25.67;;;;;;;;;;5028399;28;20046;-66
2023/12/19 13:39:33;;;;;;;63.77;24.57;;;;;;;;;;5028006;28;20045;-67
2023/12/19 13:42:00;;;;;;;48.43;21.80;;;;;;;;;;5027900;28;20084;-66
2023/12/19 13:44:26;;;;;;;46.00;21.77;;;;;;;;;;5028146;28;20050;-66
2023/12/19 13:46:55;;;;;;;38.73;20.17;;;;;;;;;;5028561;28;20037;-67
2023/12/19 13:49:21;;;;;;;34.30;18.00;;;;;;;;;;5028210;28;20049;-66
2023/12/19 13:51:47;;;;;;;88.20;27.63;;;;;;;;;;5025680;28;20049;-66
2023/12/19 13:54:13;;;;;;;41.60;20.13;;;;;;;;;;5028186;28;20053;-67
2023/12/19 13:56:39;;;;;;;53.73;22.37;;;;;;;;;;5027748;28;20045;-66
2023/12/19 13:59:07;;;;;;;42.27;19.23;;;;;;;;;;5028370;28;20056;-67
2023/12/19 14:01:33;;;;;;;50.60;20.87;;;;;;;;;;5028343;28;20132;-67
2023/12/19 14:03:59;;;;;;;47.27;20.00;;;;;;;;;;5028309;28;20053;-67
2023/12/19 14:06:25;;;;;;;63.70;22.67;;;;;;;;;;5027860;28;20131;-66
2023/12/19 14:08:51;;;;;;;37.50;18.63;;;;;;;;;;5026870;28;20447;-67
2023/12/19 14:11:18;;;;;;;47.10;20.00;;;;;;;;;;5028153;28;20049;-66
2023/12/19 14:13:44;;;;;;;71.27;24.00;;;;;;;;;;5026734;28;20054;-66